sensor_id;sensor_type;location;lat;lon;timestamp;pressure;altitude;pressure_sealevel;temperature;humidity
39309;BME280;26019;47.510;19.122;2022-09-17T00:06:45;99374.66;;;12.82;100.00
39309;BME280;26019;47.510;19.122;2022-09-17T00:16:48;99375.72;;;12.75;100.00
39309;BME280;26019;47.510;19.122;2022-09-17T00:26:50;99373.66;;;12.86;100.00
39309;BME280;26019;47.510;19.122;2022-09-17T00:36:52;99350.97;;;12.93;100.00
39309;BME280;26019;47.510;19.122;2022-09-17T00:46:54;99339.25;;;12.81;100.00
39309;BME280;26019;47.510;19.122;2022-09-17T00:56:56;99325.34;;;12.83;100.00
39309;BME280;26019;47.510;19.122;2022-09-17T01:38:25;99338.00;;;12.64;100.00
39309;BME280;26019;47.510;19.122;2022-09-17T01:48:32;99353.47;;;12.67;100.00
39309;BME280;26019;47.510;19.122;2022-09-17T01:58:44;99365.44;;;12.72;100.00
39309;BME280;26019;47.510;19.122;2022-09-17T02:09:04;99356.31;;;12.60;100.00
39309;BME280;26019;47.510;19.122;2022-09-17T02:19:18;99355.34;;;12.62;100.00
39309;BME280;26019;47.510;19.122;2022-09-17T02:29:41;99344.97;;;12.62;100.00
39309;BME280;26019;47.510;19.122;2022-09-17T02:39:43;99333.41;;;12.44;100.00
39309;BME280;26019;47.510;19.122;2022-09-17T03:00:16;99290.50;;;12.35;100.00
39309;BME280;26019;47.510;19.122;2022-09-17T03:10:19;99284.69;;;12.27;100.00
39309;BME280;26019;47.510;19.122;2022-09-17T03:20:20;99268.16;;;12.31;100.00
39309;BME280;26019;47.510;19.122;2022-09-17T03:30:22;99233.84;;;12.24;100.00
39309;BME280;26019;47.510;19.122;2022-09-17T03:40:24;99201.47;;;12.09;100.00
39309;BME280;26019;47.510;19.122;2022-09-17T03:50:26;99207.63;;;12.05;100.00
39309;BME280;26019;47.510;19.122;2022-09-17T04:00:29;99204.38;;;11.99;100.00
39309;BME280;26019;47.510;19.122;2022-09-17T04:10:30;99223.22;;;12.04;100.00
39309;BME280;26019;47.510;19.122;2022-09-17T04:20:32;99226.06;;;11.93;100.00
39309;BME280;26019;47.510;19.122;2022-09-17T04:30:35;99214.72;;;11.99;100.00
39309;BME280;26019;47.510;19.122;2022-09-17T04:40:36;99216.38;;;12.01;100.00
39309;BME280;26019;47.510;19.122;2022-09-17T04:50:38;99196.63;;;11.97;100.00
39309;BME280;26019;47.510;19.122;2022-09-17T05:00:40;99201.78;;;11.99;100.00
39309;BME280;26019;47.510;19.122;2022-09-17T05:10:45;99215.31;;;12.08;100.00
39309;BME280;26019;47.510;19.122;2022-09-17T05:20:47;99222.09;;;12.13;100.00
39309;BME280;26019;47.510;19.122;2022-09-17T05:30:48;99225.31;;;12.21;100.00
39309;BME280;26019;47.510;19.122;2022-09-17T05:40:50;99238.84;;;12.31;100.00
39309;BME280;26019;47.510;19.122;2022-09-17T05:50:54;99256.09;;;12.30;100.00
39309;BME280;26019;47.510;19.122;2022-09-17T06:00:59;99264.31;;;12.45;100.00
39309;BME280;26019;47.510;19.122;2022-09-17T06:11:06;99275.75;;;12.37;100.00
39309;BME280;26019;47.510;19.122;2022-09-17T06:21:08;99259.41;;;12.35;100.00
39309;BME280;26019;47.510;19.122;2022-09-17T06:31:11;99246.84;;;12.51;100.00
39309;BME280;26019;47.510;19.122;2022-09-17T06:41:14;99263.84;;;12.60;100.00
39309;BME280;26019;47.510;19.122;2022-09-17T06:51:17;99274.50;;;12.51;100.00
39309;BME280;26019;47.510;19.122;2022-09-17T07:01:19;99287.47;;;12.51;100.00
39309;BME280;26019;47.510;19.122;2022-09-17T07:11:20;99284.72;;;12.84;100.00
39309;BME280;26019;47.510;19.122;2022-09-17T07:21:22;99304.16;;;12.97;100.00
39309;BME280;26019;47.510;19.122;2022-09-17T07:31:24;99293.31;;;13.38;100.00
39309;BME280;26019;47.510;19.122;2022-09-17T07:41:26;99288.75;;;13.96;100.00
39309;BME280;26019;47.510;19.122;2022-09-17T07:51:27;99295.69;;;14.19;100.00
39309;BME280;26019;47.510;19.122;2022-09-17T08:01:31;99295.16;;;14.57;100.00
39309;BME280;26019;47.510;19.122;2022-09-17T08:11:35;99304.09;;;14.26;100.00
39309;BME280;26019;47.510;19.122;2022-09-17T08:21:57;99337.16;;;13.98;100.00
39309;BME280;26019;47.510;19.122;2022-09-17T08:32:03;99324.78;;;14.29;100.00
39309;BME280;26019;47.510;19.122;2022-09-17T08:43:14;99317.19;;;14.70;100.00
39309;BME280;26019;47.510;19.122;2022-09-17T09:13:19;99320.44;;;13.56;100.00
39309;BME280;26019;47.510;19.122;2022-09-17T09:23:55;99329.16;;;13.54;100.00
39309;BME280;26019;47.510;19.122;2022-09-17T09:34:03;99317.69;;;13.85;100.00
39309;BME280;26019;47.510;19.122;2022-09-17T09:44:10;99316.56;;;14.63;100.00
39309;BME280;26019;47.510;19.122;2022-09-17T09:54:35;99328.84;;;14.36;100.00
39309;BME280;26019;47.510;19.122;2022-09-17T10:04:39;99338.56;;;14.55;100.00
39309;BME280;26019;47.510;19.122;2022-09-17T10:14:43;99311.34;;;14.41;100.00
39309;BME280;26019;47.510;19.122;2022-09-17T10:24:47;99309.63;;;14.40;100.00
39309;BME280;26019;47.510;19.122;2022-09-17T10:35:05;99260.75;;;14.95;100.00
39309;BME280;26019;47.510;19.122;2022-09-17T10:45:25;99282.63;;;14.44;98.08
39309;BME280;26019;47.510;19.122;2022-09-17T10:55:47;99251.88;;;14.78;93.57
39309;BME280;26019;47.510;19.122;2022-09-17T11:26:46;99250.28;;;14.52;83.30
39309;BME280;26019;47.510;19.122;2022-09-17T11:47:22;99233.84;;;14.73;71.64
39309;BME280;26019;47.510;19.122;2022-09-17T11:57:37;99206.25;;;14.25;74.99
39309;BME280;26019;47.510;19.122;2022-09-17T12:28:52;99139.69;;;14.00;76.22
39309;BME280;26019;47.510;19.122;2022-09-17T12:39:27;99119.69;;;14.02;81.09
39309;BME280;26019;47.510;19.122;2022-09-17T12:50:00;99101.84;;;14.37;76.22
39309;BME280;26019;47.510;19.122;2022-09-17T13:20:45;99110.31;;;13.98;82.30
39309;BME280;26019;47.510;19.122;2022-09-17T13:30:59;99115.00;;;13.89;86.34
39309;BME280;26019;47.510;19.122;2022-09-17T13:41:21;99088.44;;;13.59;88.43
39309;BME280;26019;47.510;19.122;2022-09-17T14:11:56;99105.59;;;13.63;94.87
39309;BME280;26019;47.510;19.122;2022-09-17T14:32:17;99125.16;;;13.24;94.51
39309;BME280;26019;47.510;19.122;2022-09-17T14:42:34;99155.72;;;13.16;94.71
39309;BME280;26019;47.510;19.122;2022-09-17T14:52:39;99158.94;;;12.97;97.41
39309;BME280;26019;47.510;19.122;2022-09-17T15:02:41;99127.50;;;12.81;94.41
39309;BME280;26019;47.510;19.122;2022-09-17T15:12:47;99147.34;;;12.82;96.24
39309;BME280;26019;47.510;19.122;2022-09-17T15:23:18;99146.50;;;12.82;96.36
39309;BME280;26019;47.510;19.122;2022-09-17T15:33:25;99117.78;;;12.88;100.00
39309;BME280;26019;47.510;19.122;2022-09-17T15:43:29;99117.59;;;12.67;100.00
39309;BME280;26019;47.510;19.122;2022-09-17T15:53:35;99097.81;;;12.39;100.00
39309;BME280;26019;47.510;19.122;2022-09-17T16:13:40;99097.25;;;12.03;100.00
39309;BME280;26019;47.510;19.122;2022-09-17T16:23:45;99081.00;;;11.96;100.00
39309;BME280;26019;47.510;19.122;2022-09-17T16:33:47;99071.88;;;11.84;100.00
39309;BME280;26019;47.510;19.122;2022-09-17T16:43:48;99057.69;;;11.69;100.00
39309;BME280;26019;47.510;19.122;2022-09-17T16:53:50;99070.00;;;11.61;100.00
39309;BME280;26019;47.510;19.122;2022-09-17T17:03:52;99052.91;;;11.57;100.00
39309;BME280;26019;47.510;19.122;2022-09-17T17:13:58;99093.94;;;11.39;100.00
39309;BME280;26019;47.510;19.122;2022-09-17T17:24:01;99072.91;;;11.22;100.00
39309;BME280;26019;47.510;19.122;2022-09-17T17:34:04;99091.31;;;11.09;100.00
39309;BME280;26019;47.510;19.122;2022-09-17T17:44:08;99083.09;;;10.95;100.00
39309;BME280;26019;47.510;19.122;2022-09-17T17:54:13;99074.81;;;10.82;100.00
39309;BME280;26019;47.510;19.122;2022-09-17T18:04:15;99113.84;;;10.72;100.00
39309;BME280;26019;47.510;19.122;2022-09-17T18:14:17;99123.59;;;10.61;100.00
39309;BME280;26019;47.510;19.122;2022-09-17T18:24:18;99134.78;;;10.61;100.00
39309;BME280;26019;47.510;19.122;2022-09-17T18:34:21;99136.25;;;10.72;100.00
39309;BME280;26019;47.510;19.122;2022-09-17T18:44:23;99142.63;;;10.57;100.00
39309;BME280;26019;47.510;19.122;2022-09-17T18:54:29;99131.47;;;10.56;100.00
39309;BME280;26019;47.510;19.122;2022-09-17T19:04:31;99114.44;;;10.49;100.00
39309;BME280;26019;47.510;19.122;2022-09-17T19:14:46;99110.03;;;10.53;100.00
39309;BME280;26019;47.510;19.122;2022-09-17T19:24:51;99137.03;;;10.38;100.00
39309;BME280;26019;47.510;19.122;2022-09-17T19:34:56;99152.59;;;10.35;100.00
39309;BME280;26019;47.510;19.122;2022-09-17T19:44:59;99155.50;;;10.21;100.00
39309;BME280;26019;47.510;19.122;2022-09-17T19:55:00;99168.25;;;10.28;100.00
39309;BME280;26019;47.510;19.122;2022-09-17T20:05:02;99163.31;;;10.19;100.00
39309;BME280;26019;47.510;19.122;2022-09-17T20:15:05;99160.81;;;10.14;100.00
39309;BME280;26019;47.510;19.122;2022-09-17T20:25:09;99168.69;;;10.10;100.00
39309;BME280;26019;47.510;19.122;2022-09-17T20:35:11;99180.56;;;10.17;100.00
39309;BME280;26019;47.510;19.122;2022-09-17T20:45:12;99178.88;;;10.16;100.00
39309;BME280;26019;47.510;19.122;2022-09-17T20:55:14;99181.38;;;10.19;100.00
39309;BME280;26019;47.510;19.122;2022-09-17T21:05:22;99183.09;;;10.20;100.00
39309;BME280;26019;47.510;19.122;2022-09-17T21:15:30;99190.59;;;10.29;100.00
39309;BME280;26019;47.510;19.122;2022-09-17T21:25:38;99184.03;;;10.16;100.00
39309;BME280;26019;47.510;19.122;2022-09-17T21:35:40;99204.56;;;10.21;100.00
39309;BME280;26019;47.510;19.122;2022-09-17T21:45:43;99205.38;;;10.23;100.00
39309;BME280;26019;47.510;19.122;2022-09-17T21:55:45;99208.72;;;10.28;100.00
39309;BME280;26019;47.510;19.122;2022-09-17T22:05:46;99209.97;;;10.10;100.00
39309;BME280;26019;47.510;19.122;2022-09-17T22:15:55;99210.97;;;10.04;100.00
39309;BME280;26019;47.510;19.122;2022-09-17T22:26:03;99213.91;;;9.87;100.00
39309;BME280;26019;47.510;19.122;2022-09-17T22:36:10;99222.75;;;9.74;100.00
39309;BME280;26019;47.510;19.122;2022-09-17T22:46:14;99231.56;;;9.63;100.00
39309;BME280;26019;47.510;19.122;2022-09-17T22:56:20;99237.69;;;9.59;100.00
39309;BME280;26019;47.510;19.122;2022-09-17T23:06:28;99243.06;;;9.47;100.00
39309;BME280;26019;47.510;19.122;2022-09-17T23:16:41;99255.13;;;9.45;100.00
39309;BME280;26019;47.510;19.122;2022-09-17T23:26:43;99255.34;;;9.32;100.00
39309;BME280;26019;47.510;19.122;2022-09-17T23:36:45;99273.56;;;9.23;100.00
39309;BME280;26019;47.510;19.122;2022-09-17T23:46:55;99265.09;;;9.15;100.00
39309;BME280;26019;47.510;19.122;2022-09-17T23:56:58;99280.47;;;9.21;100.00
